Flight Track Log - Related Links

Times and Time Zones

All times are in EDT time to prevent confusion due to time zone crossing. See the RPA3194 flight status page for this flight to view local times or setup timezone preferences in your user account.

Time Position Orientation Groundspeed Altitude Reporting Facility
EDT Latitude Longitude Course Direction KTS MPH feet Rate Location/Type
Tue 06:38:16 PM 41.3878 -81.8839 114° Southeast 158 182 1,900  Level Cleveland Center
Tue 06:39:05 PM 41.3542 -81.8889 186° South 168 193 3,000 1,596 Climbing Cleveland Center
Tue 06:40:00 PM 41.1548 -81.3209 127° Southeast  Level FlightAware Approximate
Tue 06:40:05 PM 41.3025 -81.8464 148° Southeast 266 306 4,800  Level Cleveland Center
Tue 06:41:00 PM 41.0843 -81.1373 108° East  Level FlightAware Approximate
Tue 06:41:10 PM 41.2744 -81.7436 110° East 273 314 7,600  Level Cleveland Center
Tue 06:42:00 PM 41.0332 -80.9412 111° Southeast  Level FlightAware Approximate
Tue 06:42:10 PM 41.2442 -81.6408 111° Southeast 289 333 10,100  Level Cleveland Center
Tue 06:43:00 PM 40.9724 -80.7503 114° Southeast  Level FlightAware Approximate
Tue 06:43:10 PM 41.2119 -81.5325 112° Southeast 299 344 11,800  Level Cleveland Center
Tue 06:44:10 PM 41.1753 -81.4106 112° Southeast 332 382 13,800 2,000 Climbing Cleveland Center
Tue 06:45:10 PM 41.1531 -81.2919 104° East 337 388 15,800 1,950 Climbing Cleveland Center
Tue 06:46:10 PM 41.1372 -81.1594 99° East 356 410 17,700 1,550 Climbing Cleveland Center
Tue 06:47:10 PM 41.1231 -81.0325 98° East 369 425 18,900 1,400 Climbing Cleveland Center
Tue 06:48:10 PM 41.0839 -80.9053 112° Southeast 369 425 20,500 1,600 Climbing Cleveland Center
Tue 06:49:10 PM 41.0364 -80.7758 116° Southeast 380 437 22,100 1,550 Climbing Cleveland Center
Tue 06:50:10 PM 40.9886 -80.6436 116° Southeast 385 443 23,600 1,350 Climbing Cleveland Center
Tue 06:51:10 PM 40.9406 -80.5117 116° Southeast 385 443 24,800 700 Climbing Cleveland Center
Tue 06:52:10 PM 40.8925 -80.3744 115° Southeast 390 449 25,000 100 Climbing Cleveland Center
Tue 06:53:10 PM 40.8317 -80.2153 117° Southeast 415 478 25,000  Level Cleveland Center
Tue 06:54:10 PM 40.7811 -80.0731 115° Southeast 426 490 25,000  Level Cleveland Center
Tue 06:55:10 PM 40.7325 -79.9447 117° Southeast 426 490 25,000  Level Cleveland Center
Tue 06:56:10 PM 40.6817 -79.8028 115° Southeast 426 490 25,000  Level Cleveland Center
Tue 06:57:10 PM 40.6325 -79.6667 115° Southeast 420 483 25,000  Level Cleveland Center
Tue 06:58:10 PM 40.5814 -79.5333 117° Southeast 409 471 25,000  Level Cleveland Center
Tue 06:59:10 PM 40.5344 -79.4056 116° Southeast 398 458 25,000  Level Cleveland Center
Tue 07:00:10 PM 40.4786 -79.2619 117° Southeast 398 458 25,000  Level Cleveland Center
Tue 07:01:10 PM 40.4333 -79.1428 116° Southeast 398 458 25,000  Level Cleveland Center
Tue 07:02:10 PM 40.3836 -79.0131 117° Southeast 398 458 25,000  Level Cleveland Center
Tue 07:03:10 PM 40.3339 -78.8808 116° Southeast 403 464 25,000  Level Cleveland Center
Tue 07:04:10 PM 40.3169 -78.7397 99° East 390 449 25,000  Level Cleveland Center
Tue 07:05:10 PM 40.3167 -78.5981 90° East 390 449 25,000  Level Cleveland Center
Tue 07:06:10 PM 40.3142 -78.4539 91° East 385 443 25,000  Level Cleveland Center
Tue 07:07:53 PM 40.3158 -78.1950 89° East 395 455 25,000  Level New York Center
Tue 07:08:53 PM 40.3142 -78.0506 91° East 395 455 25,000  Level New York Center
Tue 07:09:53 PM 40.3106 -77.9056 92° East 395 455 25,000  Level New York Center
Tue 07:10:54 PM 40.2983 -77.7600 96° East 400 460 25,000  Level New York Center
Tue 07:11:54 PM 40.2819 -77.6142 98° East 405 466 25,000 -153 Level New York Center
Tue 07:12:52 PM 40.2672 -77.4711 98° East 405 466 24,700 -1,160 Descending New York Center
Tue 07:13:53 PM 40.2494 -77.3417 100° East 405 466 22,700 -1,983 Descending New York Center
Tue 07:14:53 PM 40.2322 -77.2014 99° East 394 453 20,700 -2,067 Descending New York Center
Tue 07:15:52 PM 40.2167 -77.0667 99° East 387 445 18,600 -1,866 Descending New York Center
Tue 07:16:52 PM 40.1992 -76.9211 99° East 371 427 17,000 -793 Descending New York Center
Tue 07:17:53 PM 40.1828 -76.7919 99° East 363 418 17,000  Level New York Center
Tue 07:18:54 PM 40.1683 -76.6656 98° East 353 406 17,000 -252 Level New York Center
Tue 07:19:52 PM 40.1531 -76.5528 100° East 353 406 16,500 -908 Descending New York Center
Tue 07:20:53 PM 40.1364 -76.4267 100° East 353 406 15,200 -1,388 Descending New York Center
Tue 07:21:53 PM 40.1200 -76.2894 99° East 353 406 13,700 -1,339 Descending New York Center
Tue 07:22:54 PM 40.1131 -76.1694 94° East 348 400 12,500 -1,210 Descending New York Center
Tue 07:23:52 PM 40.1050 -76.0683 96° East 327 376 11,300 -1,210 Descending New York Center
Tue 07:24:53 PM 40.0956 -75.9536 96° East 317 365 10,100 -1,190 Descending New York Center
Tue 07:25:53 PM 40.0858 -75.8417 96° East 289 333 8,900 -1,050 Descending New York Center
Tue 07:26:53 PM 40.0811 -75.7544 94° East 261 300 8,000 -454 Descending New York Center
Tue 07:27:52 PM 40.1169 -75.6975 51° Northeast 194 223 8,000 -400 Level New York Center
Tue 07:28:53 PM 40.1742 -75.6717 19° North 200 230 7,200 -934 Descending New York Center
Tue 07:29:54 PM 40.1900 -75.5967 75° East 196 226 6,100 -1,059 Descending New York Center
Tue 07:30:52 PM 40.1742 -75.5247 106° East 196 226 5,100 -1,250 Descending New York Center
Tue 07:31:54 PM 40.1581 -75.4586 108° East 201 231 3,600 -1,050 Descending New York Center
Tue 07:32:52 PM 40.1247 -75.4047 129° Southeast 196 226 3,000 -303 Descending New York Center
Tue 07:33:53 PM 40.0892 -75.3536 132° Southeast 191 220 3,000  Level New York Center
Tue 07:34:36 PM 40.0667 -75.3167 129° Southeast 195 224 3,000 -275 Level Philadelphia TRACON
Tue 07:35:42 PM 40.0000 -75.3000 169° South 188 216 2,500 -727 Descending Philadelphia TRACON
Tue 07:36:48 PM 39.9500 -75.2667 153° Southeast 175 201 1,400 -1,000 Descending Philadelphia TRACON

Login

Don't have an account? Register now (free) for customized features, flight alerts, and more!